sensor_id;sensor_type;location;lat;lon;timestamp;P1;durP1;ratioP1;P2;durP2;ratioP2
69170;SDS011;56279;47.902;12.308;2023-04-03T00:01:23;11.35;;;6.30;;
69170;SDS011;56279;47.902;12.308;2023-04-03T00:03:30;10.82;;;5.70;;
69170;SDS011;56279;47.902;12.308;2023-04-03T00:05:32;9.93;;;6.07;;
69170;SDS011;56279;47.902;12.308;2023-04-03T00:07:33;11.60;;;6.60;;
69170;SDS011;56279;47.902;12.308;2023-04-03T00:09:35;11.55;;;6.03;;
69170;SDS011;56279;47.902;12.308;2023-04-03T00:11:38;9.75;;;5.22;;
69170;SDS011;56279;47.902;12.308;2023-04-03T00:13:39;11.40;;;5.75;;
69170;SDS011;56279;47.902;12.308;2023-04-03T00:15:42;10.40;;;6.35;;
69170;SDS011;56279;47.902;12.308;2023-04-03T00:17:43;10.20;;;6.25;;
69170;SDS011;56279;47.902;12.308;2023-04-03T00:19:44;11.40;;;6.25;;
69170;SDS011;56279;47.902;12.308;2023-04-03T00:21:46;9.95;;;5.97;;
69170;SDS011;56279;47.902;12.308;2023-04-03T00:23:49;10.52;;;6.30;;
69170;SDS011;56279;47.902;12.308;2023-04-03T00:25:52;10.15;;;5.43;;
69170;SDS011;56279;47.902;12.308;2023-04-03T00:27:53;10.85;;;5.90;;
69170;SDS011;56279;47.902;12.308;2023-04-03T00:29:55;10.23;;;5.30;;
69170;SDS011;56279;47.902;12.308;2023-04-03T00:31:56;12.20;;;6.20;;
69170;SDS011;56279;47.902;12.308;2023-04-03T00:34:01;10.15;;;5.68;;
69170;SDS011;56279;47.902;12.308;2023-04-03T00:36:09;10.77;;;5.53;;
69170;SDS011;56279;47.902;12.308;2023-04-03T00:38:11;11.05;;;6.05;;
69170;SDS011;56279;47.902;12.308;2023-04-03T00:40:14;10.73;;;5.95;;
69170;SDS011;56279;47.902;12.308;2023-04-03T00:42:16;11.82;;;6.05;;
69170;SDS011;56279;47.902;12.308;2023-04-03T00:44:22;9.52;;;5.82;;
69170;SDS011;56279;47.902;12.308;2023-04-03T00:46:45;10.45;;;5.60;;
69170;SDS011;56279;47.902;12.308;2023-04-03T00:48:48;9.25;;;5.38;;
69170;SDS011;56279;47.902;12.308;2023-04-03T00:50:50;10.88;;;5.50;;
69170;SDS011;56279;47.902;12.308;2023-04-03T00:52:56;10.48;;;5.75;;
69170;SDS011;56279;47.902;12.308;2023-04-03T00:54:59;10.68;;;5.85;;
69170;SDS011;56279;47.902;12.308;2023-04-03T00:57:10;10.23;;;5.63;;
69170;SDS011;56279;47.902;12.308;2023-04-03T00:59:13;8.73;;;5.32;;
69170;SDS011;56279;47.902;12.308;2023-04-03T01:01:20;11.52;;;6.05;;
69170;SDS011;56279;47.902;12.308;2023-04-03T01:03:24;9.60;;;5.38;;
69170;SDS011;56279;47.902;12.308;2023-04-03T01:05:33;9.68;;;5.78;;
69170;SDS011;56279;47.902;12.308;2023-04-03T01:07:35;10.13;;;5.80;;
69170;SDS011;56279;47.902;12.308;2023-04-03T01:09:38;10.35;;;5.85;;
69170;SDS011;56279;47.902;12.308;2023-04-03T01:11:40;12.40;;;6.05;;
69170;SDS011;56279;47.902;12.308;2023-04-03T01:13:42;11.63;;;5.88;;
69170;SDS011;56279;47.902;12.308;2023-04-03T01:15:43;11.05;;;6.25;;
69170;SDS011;56279;47.902;12.308;2023-04-03T01:17:48;10.93;;;6.05;;
69170;SDS011;56279;47.902;12.308;2023-04-03T01:20:14;12.05;;;7.15;;
69170;SDS011;56279;47.902;12.308;2023-04-03T01:22:29;13.80;;;6.68;;
69170;SDS011;56279;47.902;12.308;2023-04-03T01:24:44;13.52;;;7.53;;
69170;SDS011;56279;47.902;12.308;2023-04-03T01:26:50;12.68;;;7.18;;
69170;SDS011;56279;47.902;12.308;2023-04-03T01:28:54;13.43;;;7.50;;
69170;SDS011;56279;47.902;12.308;2023-04-03T01:30:59;14.23;;;7.45;;
69170;SDS011;56279;47.902;12.308;2023-04-03T01:33:10;12.18;;;7.05;;
69170;SDS011;56279;47.902;12.308;2023-04-03T01:35:14;12.35;;;7.05;;
69170;SDS011;56279;47.902;12.308;2023-04-03T01:37:19;10.88;;;6.88;;
69170;SDS011;56279;47.902;12.308;2023-04-03T01:39:21;13.00;;;6.90;;
69170;SDS011;56279;47.902;12.308;2023-04-03T01:41:24;10.98;;;5.97;;
69170;SDS011;56279;47.902;12.308;2023-04-03T01:43:29;13.02;;;6.93;;
69170;SDS011;56279;47.902;12.308;2023-04-03T01:45:31;11.30;;;5.53;;
69170;SDS011;56279;47.902;12.308;2023-04-03T01:47:33;11.30;;;6.68;;
69170;SDS011;56279;47.902;12.308;2023-04-03T01:49:34;11.88;;;6.13;;
69170;SDS011;56279;47.902;12.308;2023-04-03T01:51:35;11.15;;;6.55;;
69170;SDS011;56279;47.902;12.308;2023-04-03T01:53:37;11.85;;;5.55;;
69170;SDS011;56279;47.902;12.308;2023-04-03T01:55:38;10.80;;;6.07;;
69170;SDS011;56279;47.902;12.308;2023-04-03T01:57:40;11.02;;;6.07;;
69170;SDS011;56279;47.902;12.308;2023-04-03T01:59:42;11.57;;;6.00;;
69170;SDS011;56279;47.902;12.308;2023-04-03T02:01:44;10.52;;;5.72;;
69170;SDS011;56279;47.902;12.308;2023-04-03T02:03:46;11.43;;;5.90;;
69170;SDS011;56279;47.902;12.308;2023-04-03T02:05:47;8.80;;;5.28;;
69170;SDS011;56279;47.902;12.308;2023-04-03T02:07:50;10.93;;;5.38;;
69170;SDS011;56279;47.902;12.308;2023-04-03T02:09:52;10.43;;;5.47;;
69170;SDS011;56279;47.902;12.308;2023-04-03T02:11:54;8.48;;;4.80;;
69170;SDS011;56279;47.902;12.308;2023-04-03T02:13:55;11.13;;;4.72;;
69170;SDS011;56279;47.902;12.308;2023-04-03T02:15:57;12.30;;;5.43;;
69170;SDS011;56279;47.902;12.308;2023-04-03T02:17:58;10.98;;;4.68;;
69170;SDS011;56279;47.902;12.308;2023-04-03T02:20:00;7.95;;;4.97;;
69170;SDS011;56279;47.902;12.308;2023-04-03T02:22:04;9.93;;;5.10;;
69170;SDS011;56279;47.902;12.308;2023-04-03T02:24:06;11.60;;;5.35;;
69170;SDS011;56279;47.902;12.308;2023-04-03T02:26:12;8.07;;;4.85;;
69170;SDS011;56279;47.902;12.308;2023-04-03T02:28:15;9.73;;;5.65;;
69170;SDS011;56279;47.902;12.308;2023-04-03T02:30:16;7.07;;;4.28;;
69170;SDS011;56279;47.902;12.308;2023-04-03T02:32:18;9.63;;;5.10;;
69170;SDS011;56279;47.902;12.308;2023-04-03T02:34:19;9.60;;;5.15;;
69170;SDS011;56279;47.902;12.308;2023-04-03T02:36:21;11.38;;;5.43;;
69170;SDS011;56279;47.902;12.308;2023-04-03T02:38:28;8.45;;;4.47;;
69170;SDS011;56279;47.902;12.308;2023-04-03T02:40:29;11.88;;;5.43;;
69170;SDS011;56279;47.902;12.308;2023-04-03T02:42:31;9.43;;;4.60;;
69170;SDS011;56279;47.902;12.308;2023-04-03T02:44:33;9.88;;;5.60;;
69170;SDS011;56279;47.902;12.308;2023-04-03T02:46:34;11.40;;;5.07;;
69170;SDS011;56279;47.902;12.308;2023-04-03T02:48:36;10.35;;;5.03;;
69170;SDS011;56279;47.902;12.308;2023-04-03T02:50:38;8.85;;;4.68;;
69170;SDS011;56279;47.902;12.308;2023-04-03T02:52:41;9.82;;;4.93;;
69170;SDS011;56279;47.902;12.308;2023-04-03T02:54:42;9.15;;;4.40;;
69170;SDS011;56279;47.902;12.308;2023-04-03T02:56:45;8.55;;;4.60;;
69170;SDS011;56279;47.902;12.308;2023-04-03T02:58:47;10.23;;;5.43;;
69170;SDS011;56279;47.902;12.308;2023-04-03T03:00:49;10.52;;;5.28;;
69170;SDS011;56279;47.902;12.308;2023-04-03T03:02:52;8.63;;;4.85;;
69170;SDS011;56279;47.902;12.308;2023-04-03T03:04:53;9.52;;;4.70;;
69170;SDS011;56279;47.902;12.308;2023-04-03T03:06:54;8.85;;;4.85;;
69170;SDS011;56279;47.902;12.308;2023-04-03T03:08:56;8.85;;;4.20;;
69170;SDS011;56279;47.902;12.308;2023-04-03T03:10:57;11.75;;;5.38;;
69170;SDS011;56279;47.902;12.308;2023-04-03T03:12:58;10.63;;;5.10;;
69170;SDS011;56279;47.902;12.308;2023-04-03T03:15:00;11.57;;;5.30;;
69170;SDS011;56279;47.902;12.308;2023-04-03T03:17:01;8.50;;;4.72;;
69170;SDS011;56279;47.902;12.308;2023-04-03T03:19:02;10.05;;;5.18;;
69170;SDS011;56279;47.902;12.308;2023-04-03T03:21:04;10.25;;;5.07;;
69170;SDS011;56279;47.902;12.308;2023-04-03T03:23:06;11.70;;;5.18;;
69170;SDS011;56279;47.902;12.308;2023-04-03T03:25:07;8.45;;;4.53;;
69170;SDS011;56279;47.902;12.308;2023-04-03T03:27:08;9.30;;;5.07;;
69170;SDS011;56279;47.902;12.308;2023-04-03T03:29:10;9.93;;;4.13;;
69170;SDS011;56279;47.902;12.308;2023-04-03T03:31:11;9.00;;;4.88;;
69170;SDS011;56279;47.902;12.308;2023-04-03T03:33:14;9.32;;;4.78;;
69170;SDS011;56279;47.902;12.308;2023-04-03T03:35:16;10.13;;;5.07;;
69170;SDS011;56279;47.902;12.308;2023-04-03T03:37:18;10.35;;;5.28;;
69170;SDS011;56279;47.902;12.308;2023-04-03T03:39:19;9.63;;;4.43;;
69170;SDS011;56279;47.902;12.308;2023-04-03T03:41:20;8.38;;;4.45;;
69170;SDS011;56279;47.902;12.308;2023-04-03T03:43:22;8.43;;;4.80;;
69170;SDS011;56279;47.902;12.308;2023-04-03T03:45:24;10.57;;;5.00;;
69170;SDS011;56279;47.902;12.308;2023-04-03T03:47:26;10.63;;;4.38;;
69170;SDS011;56279;47.902;12.308;2023-04-03T03:49:27;8.32;;;4.63;;
69170;SDS011;56279;47.902;12.308;2023-04-03T03:51:29;9.07;;;4.70;;
69170;SDS011;56279;47.902;12.308;2023-04-03T03:53:31;8.05;;;4.72;;
69170;SDS011;56279;47.902;12.308;2023-04-03T03:55:39;9.77;;;4.90;;
69170;SDS011;56279;47.902;12.308;2023-04-03T03:57:40;9.32;;;4.30;;
69170;SDS011;56279;47.902;12.308;2023-04-03T03:59:44;8.88;;;5.05;;
69170;SDS011;56279;47.902;12.308;2023-04-03T04:01:46;10.10;;;4.78;;
69170;SDS011;56279;47.902;12.308;2023-04-03T04:03:47;9.82;;;4.85;;
69170;SDS011;56279;47.902;12.308;2023-04-03T04:05:54;8.93;;;4.30;;
69170;SDS011;56279;47.902;12.308;2023-04-03T04:07:55;6.72;;;4.03;;
69170;SDS011;56279;47.902;12.308;2023-04-03T04:09:58;7.47;;;4.32;;
69170;SDS011;56279;47.902;12.308;2023-04-03T04:12:00;8.13;;;4.45;;
69170;SDS011;56279;47.902;12.308;2023-04-03T04:14:03;7.63;;;4.22;;
69170;SDS011;56279;47.902;12.308;2023-04-03T04:16:05;8.82;;;4.30;;
69170;SDS011;56279;47.902;12.308;2023-04-03T04:18:08;8.68;;;4.90;;
69170;SDS011;56279;47.902;12.308;2023-04-03T04:20:09;8.15;;;4.68;;
69170;SDS011;56279;47.902;12.308;2023-04-03T04:22:11;10.23;;;4.85;;
69170;SDS011;56279;47.902;12.308;2023-04-03T04:24:13;10.02;;;4.53;;
69170;SDS011;56279;47.902;12.308;2023-04-03T04:26:14;8.23;;;4.80;;
69170;SDS011;56279;47.902;12.308;2023-04-03T04:28:16;7.03;;;3.80;;
69170;SDS011;56279;47.902;12.308;2023-04-03T04:30:18;8.88;;;4.50;;
69170;SDS011;56279;47.902;12.308;2023-04-03T04:32:22;8.95;;;4.72;;
69170;SDS011;56279;47.902;12.308;2023-04-03T04:34:24;7.32;;;4.50;;
69170;SDS011;56279;47.902;12.308;2023-04-03T04:36:26;8.75;;;4.38;;
69170;SDS011;56279;47.902;12.308;2023-04-03T04:38:28;9.88;;;4.50;;
69170;SDS011;56279;47.902;12.308;2023-04-03T04:40:29;11.50;;;4.82;;
69170;SDS011;56279;47.902;12.308;2023-04-03T04:42:31;8.05;;;4.55;;
69170;SDS011;56279;47.902;12.308;2023-04-03T04:44:32;7.03;;;4.20;;
69170;SDS011;56279;47.902;12.308;2023-04-03T04:46:34;7.88;;;4.70;;
69170;SDS011;56279;47.902;12.308;2023-04-03T04:48:36;7.30;;;4.45;;
69170;SDS011;56279;47.902;12.308;2023-04-03T04:50:39;9.50;;;5.10;;
69170;SDS011;56279;47.902;12.308;2023-04-03T04:52:40;10.65;;;5.18;;
69170;SDS011;56279;47.902;12.308;2023-04-03T04:54:43;8.48;;;4.95;;
69170;SDS011;56279;47.902;12.308;2023-04-03T04:56:44;12.27;;;6.82;;
69170;SDS011;56279;47.902;12.308;2023-04-03T04:58:46;14.35;;;7.32;;
69170;SDS011;56279;47.902;12.308;2023-04-03T05:00:47;15.07;;;8.10;;
69170;SDS011;56279;47.902;12.308;2023-04-03T05:02:49;15.85;;;7.68;;
69170;SDS011;56279;47.902;12.308;2023-04-03T05:04:52;9.48;;;5.82;;
69170;SDS011;56279;47.902;12.308;2023-04-03T05:06:58;10.68;;;5.18;;
69170;SDS011;56279;47.902;12.308;2023-04-03T05:09:02;10.77;;;5.88;;
69170;SDS011;56279;47.902;12.308;2023-04-03T05:11:06;8.57;;;4.72;;
69170;SDS011;56279;47.902;12.308;2023-04-03T05:13:08;8.23;;;4.32;;
69170;SDS011;56279;47.902;12.308;2023-04-03T05:15:12;8.63;;;4.57;;
69170;SDS011;56279;47.902;12.308;2023-04-03T05:17:13;9.43;;;4.55;;
69170;SDS011;56279;47.902;12.308;2023-04-03T05:19:19;7.43;;;4.55;;
69170;SDS011;56279;47.902;12.308;2023-04-03T05:21:29;7.22;;;3.92;;
69170;SDS011;56279;47.902;12.308;2023-04-03T05:23:40;7.15;;;4.30;;
69170;SDS011;56279;47.902;12.308;2023-04-03T05:25:42;8.48;;;4.50;;
69170;SDS011;56279;47.902;12.308;2023-04-03T05:27:45;8.98;;;4.25;;
69170;SDS011;56279;47.902;12.308;2023-04-03T05:29:47;7.22;;;4.25;;
69170;SDS011;56279;47.902;12.308;2023-04-03T05:31:53;7.57;;;3.95;;
69170;SDS011;56279;47.902;12.308;2023-04-03T05:33:55;7.95;;;4.15;;
69170;SDS011;56279;47.902;12.308;2023-04-03T05:36:01;7.57;;;3.85;;
69170;SDS011;56279;47.902;12.308;2023-04-03T05:38:04;7.70;;;4.47;;
69170;SDS011;56279;47.902;12.308;2023-04-03T05:40:07;7.57;;;4.15;;
69170;SDS011;56279;47.902;12.308;2023-04-03T05:42:10;7.70;;;4.40;;
69170;SDS011;56279;47.902;12.308;2023-04-03T05:44:12;8.18;;;4.13;;
69170;SDS011;56279;47.902;12.308;2023-04-03T05:46:16;8.10;;;4.03;;
69170;SDS011;56279;47.902;12.308;2023-04-03T05:48:22;7.32;;;3.75;;
69170;SDS011;56279;47.902;12.308;2023-04-03T05:50:24;8.02;;;3.85;;
69170;SDS011;56279;47.902;12.308;2023-04-03T05:52:28;7.00;;;3.88;;
69170;SDS011;56279;47.902;12.308;2023-04-03T05:54:32;6.68;;;3.83;;
69170;SDS011;56279;47.902;12.308;2023-04-03T05:56:43;7.68;;;3.80;;
69170;SDS011;56279;47.902;12.308;2023-04-03T05:58:45;6.18;;;3.35;;
69170;SDS011;56279;47.902;12.308;2023-04-03T06:00:47;7.32;;;3.58;;
69170;SDS011;56279;47.902;12.308;2023-04-03T06:02:48;6.93;;;3.78;;
69170;SDS011;56279;47.902;12.308;2023-04-03T06:04:54;7.10;;;3.75;;
69170;SDS011;56279;47.902;12.308;2023-04-03T06:06:56;7.63;;;4.28;;
69170;SDS011;56279;47.902;12.308;2023-04-03T06:09:00;7.30;;;3.60;;
69170;SDS011;56279;47.902;12.308;2023-04-03T06:11:03;7.30;;;3.85;;
69170;SDS011;56279;47.902;12.308;2023-04-03T06:13:04;7.20;;;3.33;;
69170;SDS011;56279;47.902;12.308;2023-04-03T06:15:06;6.57;;;3.70;;
69170;SDS011;56279;47.902;12.308;2023-04-03T06:17:09;7.35;;;4.00;;
69170;SDS011;56279;47.902;12.308;2023-04-03T06:19:11;8.10;;;3.90;;
69170;SDS011;56279;47.902;12.308;2023-04-03T06:21:17;7.03;;;3.38;;
69170;SDS011;56279;47.902;12.308;2023-04-03T06:23:18;6.68;;;3.67;;
69170;SDS011;56279;47.902;12.308;2023-04-03T06:25:19;6.63;;;3.90;;
69170;SDS011;56279;47.902;12.308;2023-04-03T06:27:22;7.47;;;3.85;;
69170;SDS011;56279;47.902;12.308;2023-04-03T06:29:23;6.53;;;3.80;;
69170;SDS011;56279;47.902;12.308;2023-04-03T06:31:25;7.32;;;3.85;;
69170;SDS011;56279;47.902;12.308;2023-04-03T06:33:26;6.20;;;3.60;;
69170;SDS011;56279;47.902;12.308;2023-04-03T06:35:28;6.00;;;3.58;;
69170;SDS011;56279;47.902;12.308;2023-04-03T06:37:31;5.80;;;3.55;;
69170;SDS011;56279;47.902;12.308;2023-04-03T06:39:33;7.18;;;4.20;;
69170;SDS011;56279;47.902;12.308;2023-04-03T06:41:34;6.90;;;3.67;;
69170;SDS011;56279;47.902;12.308;2023-04-03T06:43:35;7.28;;;3.92;;
69170;SDS011;56279;47.902;12.308;2023-04-03T06:45:37;6.38;;;3.67;;
69170;SDS011;56279;47.902;12.308;2023-04-03T06:47:39;5.95;;;3.15;;
69170;SDS011;56279;47.902;12.308;2023-04-03T06:49:41;6.32;;;3.80;;
69170;SDS011;56279;47.902;12.308;2023-04-03T06:51:43;7.07;;;3.40;;
69170;SDS011;56279;47.902;12.308;2023-04-03T06:53:45;11.55;;;4.28;;
69170;SDS011;56279;47.902;12.308;2023-04-03T06:55:47;8.25;;;3.78;;
69170;SDS011;56279;47.902;12.308;2023-04-03T06:57:49;6.90;;;3.85;;
69170;SDS011;56279;47.902;12.308;2023-04-03T06:59:51;9.15;;;4.07;;
69170;SDS011;56279;47.902;12.308;2023-04-03T07:01:53;7.18;;;3.65;;
69170;SDS011;56279;47.902;12.308;2023-04-03T07:03:54;6.93;;;3.70;;
69170;SDS011;56279;47.902;12.308;2023-04-03T07:05:56;7.22;;;3.92;;
69170;SDS011;56279;47.902;12.308;2023-04-03T07:07:58;9.60;;;3.70;;
69170;SDS011;56279;47.902;12.308;2023-04-03T07:10:00;6.18;;;3.60;;
69170;SDS011;56279;47.902;12.308;2023-04-03T07:12:04;6.05;;;3.40;;
69170;SDS011;56279;47.902;12.308;2023-04-03T07:14:06;6.30;;;3.50;;
69170;SDS011;56279;47.902;12.308;2023-04-03T07:16:09;6.60;;;3.60;;
69170;SDS011;56279;47.902;12.308;2023-04-03T07:18:10;7.10;;;4.07;;
69170;SDS011;56279;47.902;12.308;2023-04-03T07:20:12;5.72;;;3.35;;
69170;SDS011;56279;47.902;12.308;2023-04-03T07:22:14;7.25;;;3.42;;
69170;SDS011;56279;47.902;12.308;2023-04-03T07:24:15;5.18;;;3.30;;
69170;SDS011;56279;47.902;12.308;2023-04-03T07:26:17;6.18;;;3.30;;
69170;SDS011;56279;47.902;12.308;2023-04-03T07:28:19;5.30;;;2.95;;
69170;SDS011;56279;47.902;12.308;2023-04-03T07:30:21;5.35;;;3.25;;
69170;SDS011;56279;47.902;12.308;2023-04-03T07:32:23;8.02;;;3.40;;
69170;SDS011;56279;47.902;12.308;2023-04-03T07:34:26;6.57;;;3.58;;
69170;SDS011;56279;47.902;12.308;2023-04-03T07:36:28;8.82;;;4.85;;
69170;SDS011;56279;47.902;12.308;2023-04-03T07:38:30;6.95;;;3.70;;
69170;SDS011;56279;47.902;12.308;2023-04-03T07:40:32;6.07;;;3.15;;
69170;SDS011;56279;47.902;12.308;2023-04-03T07:42:33;5.93;;;3.60;;
69170;SDS011;56279;47.902;12.308;2023-04-03T07:44:35;6.30;;;3.35;;
69170;SDS011;56279;47.902;12.308;2023-04-03T07:46:40;7.72;;;3.28;;
69170;SDS011;56279;47.902;12.308;2023-04-03T07:48:46;6.47;;;3.67;;
69170;SDS011;56279;47.902;12.308;2023-04-03T07:50:49;6.15;;;3.10;;
69170;SDS011;56279;47.902;12.308;2023-04-03T07:52:51;5.57;;;3.30;;
69170;SDS011;56279;47.902;12.308;2023-04-03T07:54:54;6.07;;;3.60;;
69170;SDS011;56279;47.902;12.308;2023-04-03T07:56:55;8.35;;;3.90;;
69170;SDS011;56279;47.902;12.308;2023-04-03T07:58:59;6.53;;;3.40;;
69170;SDS011;56279;47.902;12.308;2023-04-03T08:01:01;5.13;;;2.97;;
69170;SDS011;56279;47.902;12.308;2023-04-03T08:03:04;7.35;;;3.95;;
69170;SDS011;56279;47.902;12.308;2023-04-03T08:05:05;7.88;;;4.22;;
69170;SDS011;56279;47.902;12.308;2023-04-03T08:07:07;7.57;;;4.10;;
69170;SDS011;56279;47.902;12.308;2023-04-03T08:09:09;7.32;;;4.18;;
69170;SDS011;56279;47.902;12.308;2023-04-03T08:15:13;7.32;;;3.58;;
69170;SDS011;56279;47.902;12.308;2023-04-03T08:17:14;7.40;;;3.53;;
69170;SDS011;56279;47.902;12.308;2023-04-03T08:19:16;7.82;;;3.95;;
69170;SDS011;56279;47.902;12.308;2023-04-03T08:21:19;9.38;;;3.90;;
69170;SDS011;56279;47.902;12.308;2023-04-03T08:23:22;8.07;;;4.15;;
69170;SDS011;56279;47.902;12.308;2023-04-03T08:25:24;6.55;;;3.72;;
69170;SDS011;56279;47.902;12.308;2023-04-03T08:27:28;6.78;;;3.47;;
69170;SDS011;56279;47.902;12.308;2023-04-03T08:29:30;7.50;;;4.45;;
69170;SDS011;56279;47.902;12.308;2023-04-03T08:31:32;7.45;;;4.28;;
69170;SDS011;56279;47.902;12.308;2023-04-03T08:33:33;8.13;;;4.82;;
69170;SDS011;56279;47.902;12.308;2023-04-03T08:35:39;7.75;;;4.25;;
69170;SDS011;56279;47.902;12.308;2023-04-03T08:37:44;12.18;;;5.68;;
69170;SDS011;56279;47.902;12.308;2023-04-03T08:39:46;12.05;;;5.35;;
69170;SDS011;56279;47.902;12.308;2023-04-03T08:41:48;10.05;;;5.15;;
69170;SDS011;56279;47.902;12.308;2023-04-03T08:46:05;13.80;;;6.40;;
69170;SDS011;56279;47.902;12.308;2023-04-03T08:48:19;15.05;;;6.35;;
69170;SDS011;56279;47.902;12.308;2023-04-03T08:50:48;8.52;;;4.13;;
69170;SDS011;56279;47.902;12.308;2023-04-03T08:52:55;13.23;;;5.72;;
69170;SDS011;56279;47.902;12.308;2023-04-03T08:55:00;6.93;;;4.22;;
69170;SDS011;56279;47.902;12.308;2023-04-03T08:57:04;7.15;;;4.25;;
69170;SDS011;56279;47.902;12.308;2023-04-03T08:59:12;7.20;;;4.47;;
69170;SDS011;56279;47.902;12.308;2023-04-03T09:01:23;8.50;;;4.65;;
69170;SDS011;56279;47.902;12.308;2023-04-03T09:03:31;8.23;;;4.72;;
69170;SDS011;56279;47.902;12.308;2023-04-03T09:08:00;6.32;;;4.03;;
69170;SDS011;56279;47.902;12.308;2023-04-03T09:10:10;7.50;;;4.03;;
69170;SDS011;56279;47.902;12.308;2023-04-03T09:16:59;8.55;;;4.78;;
69170;SDS011;56279;47.902;12.308;2023-04-03T09:19:11;7.05;;;4.43;;
69170;SDS011;56279;47.902;12.308;2023-04-03T09:21:25;6.00;;;3.67;;
69170;SDS011;56279;47.902;12.308;2023-04-03T09:25:45;7.50;;;3.85;;
69170;SDS011;56279;47.902;12.308;2023-04-03T09:27:51;7.32;;;4.05;;
69170;SDS011;56279;47.902;12.308;2023-04-03T09:29:54;6.55;;;4.00;;
69170;SDS011;56279;47.902;12.308;2023-04-03T09:32:02;7.57;;;3.60;;
69170;SDS011;56279;47.902;12.308;2023-04-03T09:34:32;8.98;;;4.57;;
69170;SDS011;56279;47.902;12.308;2023-04-03T09:36:39;6.55;;;3.90;;
69170;SDS011;56279;47.902;12.308;2023-04-03T09:38:46;7.05;;;4.05;;
69170;SDS011;56279;47.902;12.308;2023-04-03T09:40:51;7.45;;;4.32;;
69170;SDS011;56279;47.902;12.308;2023-04-03T09:43:19;6.78;;;3.50;;
69170;SDS011;56279;47.902;12.308;2023-04-03T09:45:26;6.78;;;3.95;;
69170;SDS011;56279;47.902;12.308;2023-04-03T09:47:35;6.40;;;3.40;;
69170;SDS011;56279;47.902;12.308;2023-04-03T09:49:38;6.70;;;3.72;;
69170;SDS011;56279;47.902;12.308;2023-04-03T09:51:40;6.82;;;3.25;;
69170;SDS011;56279;47.902;12.308;2023-04-03T09:53:42;8.18;;;3.60;;
69170;SDS011;56279;47.902;12.308;2023-04-03T09:55:45;6.35;;;3.15;;
69170;SDS011;56279;47.902;12.308;2023-04-03T09:57:47;6.90;;;3.58;;
69170;SDS011;56279;47.902;12.308;2023-04-03T09:59:57;6.28;;;3.38;;
69170;SDS011;56279;47.902;12.308;2023-04-03T10:02:02;6.07;;;3.10;;
69170;SDS011;56279;47.902;12.308;2023-04-03T10:04:21;7.10;;;3.55;;
69170;SDS011;56279;47.902;12.308;2023-04-03T10:06:23;5.50;;;3.42;;
69170;SDS011;56279;47.902;12.308;2023-04-03T10:10:33;6.47;;;3.58;;
69170;SDS011;56279;47.902;12.308;2023-04-03T10:12:34;5.30;;;3.30;;
69170;SDS011;56279;47.902;12.308;2023-04-03T10:14:36;6.45;;;3.45;;
69170;SDS011;56279;47.902;12.308;2023-04-03T10:16:47;7.45;;;3.42;;
69170;SDS011;56279;47.902;12.308;2023-04-03T10:18:59;6.50;;;3.88;;
69170;SDS011;56279;47.902;12.308;2023-04-03T10:21:28;7.43;;;3.60;;
69170;SDS011;56279;47.902;12.308;2023-04-03T10:23:44;7.55;;;3.70;;
69170;SDS011;56279;47.902;12.308;2023-04-03T10:30:34;5.20;;;3.20;;
69170;SDS011;56279;47.902;12.308;2023-04-03T10:35:12;4.70;;;2.30;;
69170;SDS011;56279;47.902;12.308;2023-04-03T10:37:55;6.55;;;2.60;;
69170;SDS011;56279;47.902;12.308;2023-04-03T10:40:36;5.35;;;2.97;;
69170;SDS011;56279;47.902;12.308;2023-04-03T10:54:24;5.80;;;3.25;;
69170;SDS011;56279;47.902;12.308;2023-04-03T10:56:31;6.57;;;3.55;;
69170;SDS011;56279;47.902;12.308;2023-04-03T10:58:48;6.25;;;3.92;;
69170;SDS011;56279;47.902;12.308;2023-04-03T11:00:52;6.43;;;3.45;;
69170;SDS011;56279;47.902;12.308;2023-04-03T11:02:59;6.78;;;3.58;;
69170;SDS011;56279;47.902;12.308;2023-04-03T11:07:40;7.90;;;3.40;;
69170;SDS011;56279;47.902;12.308;2023-04-03T11:09:46;6.15;;;3.10;;
69170;SDS011;56279;47.902;12.308;2023-04-03T11:12:05;7.85;;;4.18;;
69170;SDS011;56279;47.902;12.308;2023-04-03T11:14:33;6.70;;;3.80;;
69170;SDS011;56279;47.902;12.308;2023-04-03T11:16:40;6.68;;;3.58;;
69170;SDS011;56279;47.902;12.308;2023-04-03T11:18:58;6.97;;;3.97;;
69170;SDS011;56279;47.902;12.308;2023-04-03T11:21:04;6.22;;;3.78;;
69170;SDS011;56279;47.902;12.308;2023-04-03T11:23:26;6.53;;;3.83;;
69170;SDS011;56279;47.902;12.308;2023-04-03T11:25:32;6.88;;;3.70;;
69170;SDS011;56279;47.902;12.308;2023-04-03T11:29:58;7.78;;;3.58;;
69170;SDS011;56279;47.902;12.308;2023-04-03T11:32:09;5.95;;;3.40;;
69170;SDS011;56279;47.902;12.308;2023-04-03T11:34:19;6.07;;;3.45;;
69170;SDS011;56279;47.902;12.308;2023-04-03T11:36:56;5.82;;;3.10;;
69170;SDS011;56279;47.902;12.308;2023-04-03T11:39:15;7.25;;;3.33;;
69170;SDS011;56279;47.902;12.308;2023-04-03T11:41:28;5.60;;;3.10;;
69170;SDS011;56279;47.902;12.308;2023-04-03T11:43:33;5.40;;;3.35;;
69170;SDS011;56279;47.902;12.308;2023-04-03T11:47:57;7.53;;;3.50;;
69170;SDS011;56279;47.902;12.308;2023-04-03T11:50:04;6.55;;;3.63;;
69170;SDS011;56279;47.902;12.308;2023-04-03T11:52:09;5.72;;;3.90;;
69170;SDS011;56279;47.902;12.308;2023-04-03T11:56:37;11.38;;;4.88;;
69170;SDS011;56279;47.902;12.308;2023-04-03T11:58:39;7.45;;;3.58;;
69170;SDS011;56279;47.902;12.308;2023-04-03T12:03:22;7.85;;;3.88;;
69170;SDS011;56279;47.902;12.308;2023-04-03T12:05:28;6.53;;;3.58;;
69170;SDS011;56279;47.902;12.308;2023-04-03T12:07:31;7.05;;;3.00;;
69170;SDS011;56279;47.902;12.308;2023-04-03T12:09:34;5.75;;;3.45;;
69170;SDS011;56279;47.902;12.308;2023-04-03T12:11:56;5.95;;;3.30;;
69170;SDS011;56279;47.902;12.308;2023-04-03T12:16:06;6.40;;;3.20;;
69170;SDS011;56279;47.902;12.308;2023-04-03T12:18:31;6.28;;;3.25;;
69170;SDS011;56279;47.902;12.308;2023-04-03T12:25:46;5.65;;;3.30;;
69170;SDS011;56279;47.902;12.308;2023-04-03T12:27:53;7.18;;;3.50;;
69170;SDS011;56279;47.902;12.308;2023-04-03T12:37:09;6.35;;;3.40;;
69170;SDS011;56279;47.902;12.308;2023-04-03T12:41:44;6.03;;;3.47;;
69170;SDS011;56279;47.902;12.308;2023-04-03T12:46:35;7.28;;;3.60;;
69170;SDS011;56279;47.902;12.308;2023-04-03T12:50:51;6.20;;;3.30;;
69170;SDS011;56279;47.902;12.308;2023-04-03T12:55:03;5.80;;;3.30;;
69170;SDS011;56279;47.902;12.308;2023-04-03T12:57:12;5.45;;;3.38;;
69170;SDS011;56279;47.902;12.308;2023-04-03T12:59:25;5.25;;;3.13;;
69170;SDS011;56279;47.902;12.308;2023-04-03T13:01:27;6.78;;;3.92;;
69170;SDS011;56279;47.902;12.308;2023-04-03T13:03:29;9.68;;;4.43;;
69170;SDS011;56279;47.902;12.308;2023-04-03T13:05:32;8.10;;;3.70;;
69170;SDS011;56279;47.902;12.308;2023-04-03T13:07:35;7.57;;;2.95;;
69170;SDS011;56279;47.902;12.308;2023-04-03T13:09:39;4.30;;;2.55;;
69170;SDS011;56279;47.902;12.308;2023-04-03T13:11:41;6.93;;;2.88;;
69170;SDS011;56279;47.902;12.308;2023-04-03T13:13:54;5.32;;;2.45;;
69170;SDS011;56279;47.902;12.308;2023-04-03T13:16:10;5.68;;;3.08;;
69170;SDS011;56279;47.902;12.308;2023-04-03T13:20:27;5.15;;;2.53;;
69170;SDS011;56279;47.902;12.308;2023-04-03T13:22:35;7.05;;;2.92;;
69170;SDS011;56279;47.902;12.308;2023-04-03T13:24:44;5.85;;;2.70;;
69170;SDS011;56279;47.902;12.308;2023-04-03T13:26:47;6.55;;;2.88;;
69170;SDS011;56279;47.902;12.308;2023-04-03T13:28:49;5.65;;;2.72;;
69170;SDS011;56279;47.902;12.308;2023-04-03T13:31:35;7.53;;;2.97;;
69170;SDS011;56279;47.902;12.308;2023-04-03T13:36:08;4.90;;;2.60;;